sensor_id;sensor_type;location;lat;lon;timestamp;pressure;altitude;pressure_sealevel;temperature;humidity
7182;BME280;3632;42.724;23.298;2022-07-29T00:01:40;95512.97;;;23.02;81.35
7182;BME280;3632;42.724;23.298;2022-07-29T00:04:07;95527.41;;;23.11;81.47
7182;BME280;3632;42.724;23.298;2022-07-29T00:06:34;95533.41;;;23.12;81.22
7182;BME280;3632;42.724;23.298;2022-07-29T00:09:00;95535.41;;;23.10;81.09
7182;BME280;3632;42.724;23.298;2022-07-29T00:11:27;95538.63;;;23.12;80.29
7182;BME280;3632;42.724;23.298;2022-07-29T00:13:54;95535.81;;;23.13;79.79
7182;BME280;3632;42.724;23.298;2022-07-29T00:16:20;95505.06;;;22.89;79.91
7182;BME280;3632;42.724;23.298;2022-07-29T00:18:49;95540.41;;;23.11;80.26
7182;BME280;3632;42.724;23.298;2022-07-29T00:21:16;95532.22;;;23.14;79.58
7182;BME280;3632;42.724;23.298;2022-07-29T00:23:43;95533.78;;;23.09;79.81
7182;BME280;3632;42.724;23.298;2022-07-29T00:26:10;95536.41;;;22.81;80.26
7182;BME280;3632;42.724;23.298;2022-07-29T00:28:36;95529.97;;;22.77;80.47
7182;BME280;3632;42.724;23.298;2022-07-29T00:31:03;95521.94;;;22.72;80.91
7182;BME280;3632;42.724;23.298;2022-07-29T00:33:30;95534.78;;;22.80;80.85
7182;BME280;3632;42.724;23.298;2022-07-29T00:35:58;95546.00;;;22.81;80.79
7182;BME280;3632;42.724;23.298;2022-07-29T00:38:24;95552.97;;;22.80;79.96
7182;BME280;3632;42.724;23.298;2022-07-29T00:40:50;95557.59;;;22.78;80.09
7182;BME280;3632;42.724;23.298;2022-07-29T00:43:17;95554.09;;;22.50;80.58
7182;BME280;3632;42.724;23.298;2022-07-29T00:45:44;95535.03;;;22.00;82.70
7182;BME280;3632;42.724;23.298;2022-07-29T00:48:11;95542.03;;;22.00;83.31
7182;BME280;3632;42.724;23.298;2022-07-29T00:50:38;95543.41;;;21.81;84.77
7182;BME280;3632;42.724;23.298;2022-07-29T00:53:07;95544.97;;;21.82;84.35
7182;BME280;3632;42.724;23.298;2022-07-29T00:55:34;95547.97;;;21.79;84.67
7182;BME280;3632;42.724;23.298;2022-07-29T00:58:02;95546.34;;;21.78;84.76
7182;BME280;3632;42.724;23.298;2022-07-29T01:00:29;95530.06;;;21.69;84.82
7182;BME280;3632;42.724;23.298;2022-07-29T01:02:56;95531.63;;;21.64;85.17
7182;BME280;3632;42.724;23.298;2022-07-29T01:05:24;95528.75;;;21.59;85.46
7182;BME280;3632;42.724;23.298;2022-07-29T01:07:53;95534.94;;;21.58;85.39
7182;BME280;3632;42.724;23.298;2022-07-29T01:10:22;95532.34;;;21.58;85.15
7182;BME280;3632;42.724;23.298;2022-07-29T01:12:52;95525.25;;;21.66;85.31
7182;BME280;3632;42.724;23.298;2022-07-29T01:15:20;95519.78;;;21.76;85.02
7182;BME280;3632;42.724;23.298;2022-07-29T01:17:53;95514.47;;;21.84;84.57
7182;BME280;3632;42.724;23.298;2022-07-29T01:20:26;95506.69;;;21.84;84.22
7182;BME280;3632;42.724;23.298;2022-07-29T01:29:05;95499.38;;;21.73;84.23
7182;BME280;3632;42.724;23.298;2022-07-29T01:31:37;95493.47;;;21.79;83.93
7182;BME280;3632;42.724;23.298;2022-07-29T01:34:08;95504.22;;;21.76;84.03
7182;BME280;3632;42.724;23.298;2022-07-29T01:36:41;95493.19;;;21.74;84.89
7182;BME280;3632;42.724;23.298;2022-07-29T01:39:11;95501.78;;;21.74;84.55
7182;BME280;3632;42.724;23.298;2022-07-29T01:41:47;95501.75;;;21.68;84.90
7182;BME280;3632;42.724;23.298;2022-07-29T01:44:20;95506.66;;;21.63;85.28
7182;BME280;3632;42.724;23.298;2022-07-29T01:46:52;95502.22;;;21.78;84.55
7182;BME280;3632;42.724;23.298;2022-07-29T01:49:21;95503.47;;;21.82;84.55
7182;BME280;3632;42.724;23.298;2022-07-29T01:51:52;95501.13;;;21.87;84.30
7182;BME280;3632;42.724;23.298;2022-07-29T01:54:23;95496.94;;;21.86;84.11
7182;BME280;3632;42.724;23.298;2022-07-29T01:56:53;95493.63;;;21.92;84.20
7182;BME280;3632;42.724;23.298;2022-07-29T01:59:23;95470.13;;;21.79;83.77
7182;BME280;3632;42.724;23.298;2022-07-29T02:01:54;95498.88;;;21.99;84.00
7182;BME280;3632;42.724;23.298;2022-07-29T02:04:21;95492.66;;;21.93;84.56
7182;BME280;3632;42.724;23.298;2022-07-29T02:06:51;95492.47;;;21.80;84.97
7182;BME280;3632;42.724;23.298;2022-07-29T02:09:21;95486.66;;;21.78;85.68
7182;BME280;3632;42.724;23.298;2022-07-29T02:11:50;95445.59;;;21.46;86.00
7182;BME280;3632;42.724;23.298;2022-07-29T02:14:19;95492.91;;;21.83;86.26
7182;BME280;3632;42.724;23.298;2022-07-29T02:16:50;95452.22;;;21.48;86.00
7182;BME280;3632;42.724;23.298;2022-07-29T02:19:19;95476.63;;;21.54;86.47
7182;BME280;3632;42.724;23.298;2022-07-29T02:21:48;95485.97;;;21.69;86.90
7182;BME280;3632;42.724;23.298;2022-07-29T02:24:15;95486.97;;;21.68;86.53
7182;BME280;3632;42.724;23.298;2022-07-29T02:26:45;95466.78;;;21.64;85.95
7182;BME280;3632;42.724;23.298;2022-07-29T02:29:12;95475.59;;;21.69;86.23
7182;BME280;3632;42.724;23.298;2022-07-29T02:31:41;95482.94;;;21.66;86.57
7182;BME280;3632;42.724;23.298;2022-07-29T02:34:10;95474.66;;;21.77;86.69
7182;BME280;3632;42.724;23.298;2022-07-29T02:36:38;95466.16;;;21.83;86.19
7182;BME280;3632;42.724;23.298;2022-07-29T02:39:07;95471.53;;;21.81;86.23
7182;BME280;3632;42.724;23.298;2022-07-29T02:41:40;95472.34;;;21.82;86.68
7182;BME280;3632;42.724;23.298;2022-07-29T02:44:10;95480.38;;;21.87;85.82
7182;BME280;3632;42.724;23.298;2022-07-29T02:46:42;95472.03;;;21.92;85.99
7182;BME280;3632;42.724;23.298;2022-07-29T02:49:16;95465.34;;;21.97;85.74
7182;BME280;3632;42.724;23.298;2022-07-29T02:51:47;95472.56;;;22.02;85.47
7182;BME280;3632;42.724;23.298;2022-07-29T02:54:21;95471.69;;;21.95;85.44
7182;BME280;3632;42.724;23.298;2022-07-29T02:56:50;95467.91;;;21.76;86.87
7182;BME280;3632;42.724;23.298;2022-07-29T02:59:24;95470.38;;;21.84;87.33
7182;BME280;3632;42.724;23.298;2022-07-29T03:01:55;95469.63;;;21.90;86.90
7182;BME280;3632;42.724;23.298;2022-07-29T03:04:26;95436.88;;;21.68;87.04
7182;BME280;3632;42.724;23.298;2022-07-29T03:06:55;95472.22;;;21.90;86.90
7182;BME280;3632;42.724;23.298;2022-07-29T03:09:25;95466.25;;;21.90;87.33
7182;BME280;3632;42.724;23.298;2022-07-29T03:11:54;95470.41;;;21.91;87.77
7182;BME280;3632;42.724;23.298;2022-07-29T03:14:21;95476.41;;;21.91;87.59
7182;BME280;3632;42.724;23.298;2022-07-29T03:16:49;95473.81;;;21.91;87.65
7182;BME280;3632;42.724;23.298;2022-07-29T03:19:17;95473.13;;;21.82;88.38
7182;BME280;3632;42.724;23.298;2022-07-29T03:21:45;95462.97;;;21.81;88.60
7182;BME280;3632;42.724;23.298;2022-07-29T03:24:27;95463.75;;;21.81;88.10
7182;BME280;3632;42.724;23.298;2022-07-29T03:26:55;95470.91;;;21.79;88.71
7182;BME280;3632;42.724;23.298;2022-07-29T03:29:21;95471.47;;;21.75;88.49
7182;BME280;3632;42.724;23.298;2022-07-29T03:31:48;95468.06;;;21.74;89.12
7182;BME280;3632;42.724;23.298;2022-07-29T03:34:15;95472.44;;;21.74;88.92
7182;BME280;3632;42.724;23.298;2022-07-29T03:36:42;95472.72;;;21.79;89.08
7182;BME280;3632;42.724;23.298;2022-07-29T03:39:10;95473.88;;;21.76;88.86
7182;BME280;3632;42.724;23.298;2022-07-29T03:41:38;95478.44;;;21.74;88.25
7182;BME280;3632;42.724;23.298;2022-07-29T03:44:07;95483.81;;;21.73;88.24
7182;BME280;3632;42.724;23.298;2022-07-29T03:46:35;95477.22;;;21.70;87.61
7182;BME280;3632;42.724;23.298;2022-07-29T03:49:04;95482.50;;;21.62;87.71
7182;BME280;3632;42.724;23.298;2022-07-29T03:51:33;95480.25;;;21.38;88.58
7182;BME280;3632;42.724;23.298;2022-07-29T03:54:01;95481.91;;;21.46;88.99
7182;BME280;3632;42.724;23.298;2022-07-29T03:56:32;95492.06;;;21.62;88.46
7182;BME280;3632;42.724;23.298;2022-07-29T03:59:02;95455.25;;;21.52;87.97
7182;BME280;3632;42.724;23.298;2022-07-29T04:01:29;95494.44;;;21.78;87.46
7182;BME280;3632;42.724;23.298;2022-07-29T04:03:56;95494.28;;;21.79;87.15
7182;BME280;3632;42.724;23.298;2022-07-29T04:06:23;95489.69;;;21.81;87.23
7182;BME280;3632;42.724;23.298;2022-07-29T04:08:51;95489.25;;;21.93;86.77
7182;BME280;3632;42.724;23.298;2022-07-29T04:11:17;95491.56;;;21.87;86.93
7182;BME280;3632;42.724;23.298;2022-07-29T04:13:45;95467.16;;;21.82;86.13
7182;BME280;3632;42.724;23.298;2022-07-29T04:16:12;95480.09;;;21.97;85.74
7182;BME280;3632;42.724;23.298;2022-07-29T04:18:39;95491.31;;;21.97;85.93
7182;BME280;3632;42.724;23.298;2022-07-29T04:21:05;95435.88;;;21.69;86.65
7182;BME280;3632;42.724;23.298;2022-07-29T04:23:32;95415.72;;;21.50;86.95
7182;BME280;3632;42.724;23.298;2022-07-29T04:25:59;95478.13;;;21.99;86.84
7182;BME280;3632;42.724;23.298;2022-07-29T04:28:26;95482.19;;;22.08;86.25
7182;BME280;3632;42.724;23.298;2022-07-29T04:30:55;95464.97;;;22.00;85.28
7182;BME280;3632;42.724;23.298;2022-07-29T04:33:21;95492.03;;;22.12;84.60
7182;BME280;3632;42.724;23.298;2022-07-29T04:35:48;95493.09;;;22.18;84.41
7182;BME280;3632;42.724;23.298;2022-07-29T04:38:15;95500.94;;;22.24;84.28
7182;BME280;3632;42.724;23.298;2022-07-29T04:40:42;95481.03;;;22.10;84.31
7182;BME280;3632;42.724;23.298;2022-07-29T04:43:08;95483.00;;;22.08;84.14
7182;BME280;3632;42.724;23.298;2022-07-29T04:45:35;95492.78;;;22.27;84.01
7182;BME280;3632;42.724;23.298;2022-07-29T04:48:04;95496.53;;;22.25;84.01
7182;BME280;3632;42.724;23.298;2022-07-29T04:50:31;95502.16;;;22.28;84.32
7182;BME280;3632;42.724;23.298;2022-07-29T04:52:57;95504.19;;;22.33;84.21
7182;BME280;3632;42.724;23.298;2022-07-29T04:55:24;95514.41;;;22.35;84.28
7182;BME280;3632;42.724;23.298;2022-07-29T04:57:51;95515.25;;;22.42;83.57
7182;BME280;3632;42.724;23.298;2022-07-29T05:00:18;95513.28;;;22.44;83.54
7182;BME280;3632;42.724;23.298;2022-07-29T05:02:45;95510.31;;;22.47;83.21
7182;BME280;3632;42.724;23.298;2022-07-29T05:05:13;95510.88;;;22.42;83.33
7182;BME280;3632;42.724;23.298;2022-07-29T05:07:39;95509.59;;;22.31;83.74
7182;BME280;3632;42.724;23.298;2022-07-29T05:10:07;95513.91;;;22.24;84.55
7182;BME280;3632;42.724;23.298;2022-07-29T05:12:34;95508.53;;;22.26;84.76
7182;BME280;3632;42.724;23.298;2022-07-29T05:15:00;95513.19;;;22.30;84.76
7182;BME280;3632;42.724;23.298;2022-07-29T05:17:27;95513.66;;;22.41;84.31
7182;BME280;3632;42.724;23.298;2022-07-29T05:19:54;95509.94;;;22.50;84.13
7182;BME280;3632;42.724;23.298;2022-07-29T05:22:22;95514.16;;;22.51;83.86
7182;BME280;3632;42.724;23.298;2022-07-29T05:24:49;95526.19;;;22.58;83.65
7182;BME280;3632;42.724;23.298;2022-07-29T05:27:16;95502.09;;;22.43;83.62
7182;BME280;3632;42.724;23.298;2022-07-29T05:29:42;95510.44;;;22.60;83.76
7182;BME280;3632;42.724;23.298;2022-07-29T05:32:09;95513.53;;;22.70;83.56
7182;BME280;3632;42.724;23.298;2022-07-29T05:34:36;95516.56;;;22.73;82.95
7182;BME280;3632;42.724;23.298;2022-07-29T05:37:03;95516.00;;;22.78;82.68
7182;BME280;3632;42.724;23.298;2022-07-29T05:39:32;95521.00;;;22.80;82.85
7182;BME280;3632;42.724;23.298;2022-07-29T05:41:58;95521.63;;;22.82;82.76
7182;BME280;3632;42.724;23.298;2022-07-29T05:44:25;95529.09;;;22.91;82.84
7182;BME280;3632;42.724;23.298;2022-07-29T05:46:52;95526.13;;;23.01;82.35
7182;BME280;3632;42.724;23.298;2022-07-29T05:49:19;95517.97;;;23.04;82.36
7182;BME280;3632;42.724;23.298;2022-07-29T05:51:45;95524.91;;;22.97;83.13
7182;BME280;3632;42.724;23.298;2022-07-29T05:54:14;95526.06;;;22.66;84.28
7182;BME280;3632;42.724;23.298;2022-07-29T05:56:42;95526.16;;;22.52;84.91
7182;BME280;3632;42.724;23.298;2022-07-29T05:59:09;95523.03;;;22.63;84.70
7182;BME280;3632;42.724;23.298;2022-07-29T06:01:35;95530.38;;;22.74;84.85
7182;BME280;3632;42.724;23.298;2022-07-29T06:04:04;95507.03;;;22.59;84.90
7182;BME280;3632;42.724;23.298;2022-07-29T06:06:31;95523.97;;;22.76;84.42
7182;BME280;3632;42.724;23.298;2022-07-29T06:08:58;95530.06;;;22.90;83.73
7182;BME280;3632;42.724;23.298;2022-07-29T06:11:25;95528.94;;;22.99;83.76
7182;BME280;3632;42.724;23.298;2022-07-29T06:13:53;95516.28;;;22.90;82.95
7182;BME280;3632;42.724;23.298;2022-07-29T06:16:20;95536.69;;;23.27;82.21
7182;BME280;3632;42.724;23.298;2022-07-29T06:18:46;95517.38;;;23.43;81.33
7182;BME280;3632;42.724;23.298;2022-07-29T06:21:13;95525.94;;;23.71;79.50
7182;BME280;3632;42.724;23.298;2022-07-29T06:23:40;95524.19;;;23.91;77.63
7182;BME280;3632;42.724;23.298;2022-07-29T06:26:07;95523.63;;;24.02;75.94
7182;BME280;3632;42.724;23.298;2022-07-29T06:28:34;95500.63;;;24.12;75.48
7182;BME280;3632;42.724;23.298;2022-07-29T06:31:02;95521.50;;;24.32;74.12
7182;BME280;3632;42.724;23.298;2022-07-29T06:33:29;95518.69;;;24.40;73.48
7182;BME280;3632;42.724;23.298;2022-07-29T06:35:55;95518.72;;;24.47;73.13
7182;BME280;3632;42.724;23.298;2022-07-29T06:38:22;95510.72;;;24.55;73.32
7182;BME280;3632;42.724;23.298;2022-07-29T06:40:49;95516.09;;;24.67;73.56
7182;BME280;3632;42.724;23.298;2022-07-29T06:43:30;95517.53;;;24.82;71.35
7182;BME280;3632;42.724;23.298;2022-07-29T06:46:00;95507.66;;;25.04;70.34
7182;BME280;3632;42.724;23.298;2022-07-29T06:48:28;95487.63;;;24.98;69.42
7182;BME280;3632;42.724;23.298;2022-07-29T06:50:55;95523.75;;;25.08;69.42
7182;BME280;3632;42.724;23.298;2022-07-29T06:53:22;95541.34;;;25.25;67.17
7182;BME280;3632;42.724;23.298;2022-07-29T06:55:49;95511.41;;;25.34;67.59
7182;BME280;3632;42.724;23.298;2022-07-29T06:58:16;95500.50;;;25.51;68.39
7182;BME280;3632;42.724;23.298;2022-07-29T07:00:45;95495.50;;;25.62;67.80
7182;BME280;3632;42.724;23.298;2022-07-29T07:03:12;95502.31;;;25.63;67.29
7182;BME280;3632;42.724;23.298;2022-07-29T07:05:40;95498.06;;;25.69;66.62
7182;BME280;3632;42.724;23.298;2022-07-29T07:08:07;95501.75;;;25.48;64.52
7182;BME280;3632;42.724;23.298;2022-07-29T07:10:34;95496.09;;;25.64;65.93
7182;BME280;3632;42.724;23.298;2022-07-29T07:13:01;95502.66;;;25.80;65.45
7182;BME280;3632;42.724;23.298;2022-07-29T07:15:28;95492.28;;;25.67;64.60
7182;BME280;3632;42.724;23.298;2022-07-29T07:17:55;95492.44;;;25.72;63.05
7182;BME280;3632;42.724;23.298;2022-07-29T07:20:22;95497.88;;;25.70;64.21
7182;BME280;3632;42.724;23.298;2022-07-29T07:22:51;95473.19;;;25.66;64.13
7182;BME280;3632;42.724;23.298;2022-07-29T07:25:17;95489.72;;;25.91;64.26
7182;BME280;3632;42.724;23.298;2022-07-29T07:27:45;95491.09;;;26.01;62.60
7182;BME280;3632;42.724;23.298;2022-07-29T07:30:13;95487.63;;;26.07;62.08
7182;BME280;3632;42.724;23.298;2022-07-29T07:32:39;95490.19;;;26.20;63.11
7182;BME280;3632;42.724;23.298;2022-07-29T07:35:08;95494.31;;;26.34;62.57
7182;BME280;3632;42.724;23.298;2022-07-29T07:37:36;95493.19;;;26.48;61.48
7182;BME280;3632;42.724;23.298;2022-07-29T07:40:06;95488.19;;;26.47;61.00
7182;BME280;3632;42.724;23.298;2022-07-29T07:42:32;95496.19;;;26.52;61.83
7182;BME280;3632;42.724;23.298;2022-07-29T07:45:00;95435.31;;;26.20;60.41
7182;BME280;3632;42.724;23.298;2022-07-29T07:47:26;95492.94;;;26.56;60.98
7182;BME280;3632;42.724;23.298;2022-07-29T07:49:53;95487.56;;;26.69;60.44
7182;BME280;3632;42.724;23.298;2022-07-29T07:52:21;95459.47;;;26.40;60.35
7182;BME280;3632;42.724;23.298;2022-07-29T07:54:48;95489.72;;;26.79;59.53
7182;BME280;3632;42.724;23.298;2022-07-29T07:57:17;95387.44;;;26.26;60.02
7182;BME280;3632;42.724;23.298;2022-07-29T07:59:43;95488.81;;;26.92;60.17
7182;BME280;3632;42.724;23.298;2022-07-29T08:02:10;95483.75;;;26.97;59.88
7182;BME280;3632;42.724;23.298;2022-07-29T08:04:37;95484.41;;;26.92;57.61
7182;BME280;3632;42.724;23.298;2022-07-29T08:07:06;95481.88;;;26.79;57.24
7182;BME280;3632;42.724;23.298;2022-07-29T08:09:33;95486.28;;;26.78;57.46
7182;BME280;3632;42.724;23.298;2022-07-29T08:12:00;95483.47;;;26.80;58.81
7182;BME280;3632;42.724;23.298;2022-07-29T08:14:30;95487.75;;;26.74;58.20
7182;BME280;3632;42.724;23.298;2022-07-29T08:16:57;95492.94;;;26.81;58.56
7182;BME280;3632;42.724;23.298;2022-07-29T08:19:24;95478.81;;;26.82;57.74
7182;BME280;3632;42.724;23.298;2022-07-29T08:21:50;95484.28;;;26.80;57.09
7182;BME280;3632;42.724;23.298;2022-07-29T08:24:18;95483.44;;;26.87;57.28
7182;BME280;3632;42.724;23.298;2022-07-29T08:27:03;95455.69;;;26.86;57.75
7182;BME280;3632;42.724;23.298;2022-07-29T08:29:31;95475.63;;;27.05;55.80
7182;BME280;3632;42.724;23.298;2022-07-29T08:31:58;95472.78;;;27.06;56.39
7182;BME280;3632;42.724;23.298;2022-07-29T08:34:24;95472.50;;;27.14;56.22
7182;BME280;3632;42.724;23.298;2022-07-29T08:36:51;95460.56;;;27.00;55.95
7182;BME280;3632;42.724;23.298;2022-07-29T08:39:18;95477.25;;;27.24;55.22
7182;BME280;3632;42.724;23.298;2022-07-29T08:41:45;95475.19;;;27.26;53.64
7182;BME280;3632;42.724;23.298;2022-07-29T08:44:13;95471.84;;;27.19;55.09
7182;BME280;3632;42.724;23.298;2022-07-29T08:46:41;95469.09;;;27.32;54.33
7182;BME280;3632;42.724;23.298;2022-07-29T08:49:08;95468.94;;;27.45;55.31
7182;BME280;3632;42.724;23.298;2022-07-29T08:51:36;95455.94;;;27.57;53.98
7182;BME280;3632;42.724;23.298;2022-07-29T08:54:05;95468.75;;;27.77;55.30
7182;BME280;3632;42.724;23.298;2022-07-29T08:56:33;95464.13;;;27.79;52.74
7182;BME280;3632;42.724;23.298;2022-07-29T08:59:03;95458.69;;;27.92;57.71
7182;BME280;3632;42.724;23.298;2022-07-29T09:01:32;95463.47;;;27.95;55.55
7182;BME280;3632;42.724;23.298;2022-07-29T09:04:04;95464.47;;;28.12;56.92
7182;BME280;3632;42.724;23.298;2022-07-29T09:06:34;95467.13;;;28.24;53.73
7182;BME280;3632;42.724;23.298;2022-07-29T09:09:03;95455.84;;;28.35;52.46
7182;BME280;3632;42.724;23.298;2022-07-29T09:11:32;95395.16;;;27.96;51.60
7182;BME280;3632;42.724;23.298;2022-07-29T09:14:01;95469.78;;;28.47;52.33
7182;BME280;3632;42.724;23.298;2022-07-29T09:16:44;95455.75;;;28.53;53.62
7182;BME280;3632;42.724;23.298;2022-07-29T09:19:20;95444.25;;;28.66;54.22
7182;BME280;3632;42.724;23.298;2022-07-29T09:21:46;95441.09;;;28.75;53.38
7182;BME280;3632;42.724;23.298;2022-07-29T09:24:35;95449.06;;;28.92;51.03
7182;BME280;3632;42.724;23.298;2022-07-29T09:27:07;95445.50;;;29.10;50.16
7182;BME280;3632;42.724;23.298;2022-07-29T09:29:35;95409.25;;;28.83;47.68
7182;BME280;3632;42.724;23.298;2022-07-29T09:32:06;95365.34;;;28.44;47.07
7182;BME280;3632;42.724;23.298;2022-07-29T09:34:36;95447.44;;;29.14;50.07
7182;BME280;3632;42.724;23.298;2022-07-29T09:37:03;95413.31;;;29.14;49.85
7182;BME280;3632;42.724;23.298;2022-07-29T09:39:32;95442.28;;;29.42;46.88
7182;BME280;3632;42.724;23.298;2022-07-29T09:42:02;95385.50;;;28.90;44.94
7182;BME280;3632;42.724;23.298;2022-07-29T09:44:41;95438.56;;;29.15;44.38
7182;BME280;3632;42.724;23.298;2022-07-29T09:47:08;95374.00;;;29.02;45.05
7182;BME280;3632;42.724;23.298;2022-07-29T09:49:52;95402.75;;;29.49;47.04
7182;BME280;3632;42.724;23.298;2022-07-29T09:52:19;95349.38;;;29.32;46.62
7182;BME280;3632;42.724;23.298;2022-07-29T09:54:46;95434.88;;;29.96;44.34
7182;BME280;3632;42.724;23.298;2022-07-29T09:57:23;95427.41;;;30.05;45.24
7182;BME280;3632;42.724;23.298;2022-07-29T09:59:56;95420.41;;;30.10;46.64
7182;BME280;3632;42.724;23.298;2022-07-29T10:02:27;95430.63;;;30.23;47.96
7182;BME280;3632;42.724;23.298;2022-07-29T10:04:55;95419.78;;;30.36;46.62
7182;BME280;3632;42.724;23.298;2022-07-29T10:07:22;95419.41;;;30.45;45.97
7182;BME280;3632;42.724;23.298;2022-07-29T10:09:52;95412.31;;;30.62;45.37
7182;BME280;3632;42.724;23.298;2022-07-29T10:12:20;95406.50;;;30.81;44.53
7182;BME280;3632;42.724;23.298;2022-07-29T10:14:47;95401.63;;;30.90;45.07
7182;BME280;3632;42.724;23.298;2022-07-29T10:17:15;95396.53;;;31.00;43.86
7182;BME280;3632;42.724;23.298;2022-07-29T10:19:42;95256.88;;;30.30;43.47
7182;BME280;3632;42.724;23.298;2022-07-29T10:22:11;95397.28;;;31.17;41.74
7182;BME280;3632;42.724;23.298;2022-07-29T10:24:38;95390.28;;;31.28;42.68
7182;BME280;3632;42.724;23.298;2022-07-29T10:27:06;95394.50;;;31.51;42.72
7182;BME280;3632;42.724;23.298;2022-07-29T10:29:34;95384.13;;;31.66;42.07
7182;BME280;3632;42.724;23.298;2022-07-29T10:32:16;95388.88;;;31.91;42.16
7182;BME280;3632;42.724;23.298;2022-07-29T10:34:57;95382.91;;;32.05;41.22
7182;BME280;3632;42.724;23.298;2022-07-29T10:37:37;95376.72;;;32.16;40.84
7182;BME280;3632;42.724;23.298;2022-07-29T10:40:17;95373.16;;;32.33;40.27
7182;BME280;3632;42.724;23.298;2022-07-29T10:43:13;95360.59;;;32.50;39.36
7182;BME280;3632;42.724;23.298;2022-07-29T10:45:43;95360.75;;;32.70;39.74
7182;BME280;3632;42.724;23.298;2022-07-29T10:48:10;95359.75;;;32.86;39.83
7182;BME280;3632;42.724;23.298;2022-07-29T10:50:52;95352.41;;;32.98;38.04
7182;BME280;3632;42.724;23.298;2022-07-29T10:53:21;95355.38;;;33.12;39.35
7182;BME280;3632;42.724;23.298;2022-07-29T10:55:49;95351.50;;;33.25;38.71
7182;BME280;3632;42.724;23.298;2022-07-29T10:58:18;95279.75;;;32.86;37.95
7182;BME280;3632;42.724;23.298;2022-07-29T11:00:46;95336.22;;;33.42;38.24
7182;BME280;3632;42.724;23.298;2022-07-29T11:03:45;95346.25;;;33.45;37.16
7182;BME280;3632;42.724;23.298;2022-07-29T11:06:13;95350.16;;;33.17;36.36
7182;BME280;3632;42.724;23.298;2022-07-29T11:08:42;95333.53;;;33.27;37.33
7182;BME280;3632;42.724;23.298;2022-07-29T11:11:33;95333.03;;;33.40;36.13
7182;BME280;3632;42.724;23.298;2022-07-29T11:14:01;95326.72;;;33.46;36.67
7182;BME280;3632;42.724;23.298;2022-07-29T11:17:00;95334.38;;;33.47;38.11
7182;BME280;3632;42.724;23.298;2022-07-29T11:19:29;95323.75;;;33.32;39.38
7182;BME280;3632;42.724;23.298;2022-07-29T11:21:56;95304.41;;;33.12;38.24
7182;BME280;3632;42.724;23.298;2022-07-29T11:24:26;95301.28;;;33.25;39.42
7182;BME280;3632;42.724;23.298;2022-07-29T11:27:11;95323.00;;;33.57;38.74
7182;BME280;3632;42.724;23.298;2022-07-29T11:29:46;95316.41;;;33.49;39.58
7182;BME280;3632;42.724;23.298;2022-07-29T11:32:15;95276.19;;;33.27;38.78
7182;BME280;3632;42.724;23.298;2022-07-29T11:34:44;95305.31;;;33.63;37.61
7182;BME280;3632;42.724;23.298;2022-07-29T11:37:21;95320.44;;;33.87;36.99
7182;BME280;3632;42.724;23.298;2022-07-29T11:40:16;95318.84;;;33.71;37.91
7182;BME280;3632;42.724;23.298;2022-07-29T11:42:45;95317.00;;;33.77;38.69
7182;BME280;3632;42.724;23.298;2022-07-29T11:45:21;95318.81;;;33.86;39.15
7182;BME280;3632;42.724;23.298;2022-07-29T11:47:52;95312.75;;;33.91;38.97
7182;BME280;3632;42.724;23.298;2022-07-29T11:50:31;95307.22;;;34.18;38.70
7182;BME280;3632;42.724;23.298;2022-07-29T11:53:03;95279.69;;;34.14;37.93
7182;BME280;3632;42.724;23.298;2022-07-29T11:55:31;95315.09;;;34.43;36.57
7182;BME280;3632;42.724;23.298;2022-07-29T11:58:01;95310.34;;;34.45;36.13
7182;BME280;3632;42.724;23.298;2022-07-29T12:00:30;95304.25;;;34.50;37.10
7182;BME280;3632;42.724;23.298;2022-07-29T12:02:59;95308.22;;;34.47;37.16
7182;BME280;3632;42.724;23.298;2022-07-29T12:05:34;95301.28;;;34.71;37.79
7182;BME280;3632;42.724;23.298;2022-07-29T12:08:09;95296.44;;;34.89;37.74
7182;BME280;3632;42.724;23.298;2022-07-29T12:10:39;95297.69;;;35.11;36.99
7182;BME280;3632;42.724;23.298;2022-07-29T12:13:06;95296.28;;;35.29;36.97
7182;BME280;3632;42.724;23.298;2022-07-29T12:15:33;95292.25;;;35.37;36.32
7182;BME280;3632;42.724;23.298;2022-07-29T12:18:13;95293.00;;;35.47;34.04
7182;BME280;3632;42.724;23.298;2022-07-29T12:20:40;95290.44;;;35.32;32.39
7182;BME280;3632;42.724;23.298;2022-07-29T12:23:09;95288.91;;;35.26;35.02
7182;BME280;3632;42.724;23.298;2022-07-29T12:25:40;95301.28;;;35.36;35.37
7182;BME280;3632;42.724;23.298;2022-07-29T12:28:08;95295.28;;;35.15;32.72
7182;BME280;3632;42.724;23.298;2022-07-29T12:30:40;95289.66;;;35.26;34.45
7182;BME280;3632;42.724;23.298;2022-07-29T12:33:12;95290.88;;;35.44;34.34
7182;BME280;3632;42.724;23.298;2022-07-29T12:35:40;95286.66;;;35.43;32.86
7182;BME280;3632;42.724;23.298;2022-07-29T12:38:09;95283.66;;;35.55;33.92
7182;BME280;3632;42.724;23.298;2022-07-29T12:40:37;95275.53;;;35.80;34.69
7182;BME280;3632;42.724;23.298;2022-07-29T12:43:13;95264.06;;;35.90;34.00
7182;BME280;3632;42.724;23.298;2022-07-29T12:45:42;95277.91;;;36.15;33.44
7182;BME280;3632;42.724;23.298;2022-07-29T12:48:10;95269.78;;;36.31;32.37
7182;BME280;3632;42.724;23.298;2022-07-29T12:50:52;95273.19;;;36.36;31.99
7182;BME280;3632;42.724;23.298;2022-07-29T12:53:19;95271.63;;;36.01;31.88
7182;BME280;3632;42.724;23.298;2022-07-29T12:55:47;95253.19;;;35.86;33.73
7182;BME280;3632;42.724;23.298;2022-07-29T12:58:28;95247.09;;;36.20;33.69
7182;BME280;3632;42.724;23.298;2022-07-29T13:01:03;95248.03;;;36.29;32.28
7182;BME280;3632;42.724;23.298;2022-07-29T13:03:45;95252.56;;;36.52;32.08
7182;BME280;3632;42.724;23.298;2022-07-29T13:06:28;95239.75;;;36.59;32.01
7182;BME280;3632;42.724;23.298;2022-07-29T13:09:00;95246.44;;;36.51;32.01
7182;BME280;3632;42.724;23.298;2022-07-29T13:11:28;95212.31;;;36.16;31.07
7182;BME280;3632;42.724;23.298;2022-07-29T13:13:56;95179.84;;;36.00;32.09
7182;BME280;3632;42.724;23.298;2022-07-29T13:16:23;95228.88;;;36.55;31.27
7182;BME280;3632;42.724;23.298;2022-07-29T13:19:06;95232.16;;;36.71;31.62
7182;BME280;3632;42.724;23.298;2022-07-29T13:21:33;95176.88;;;36.31;29.20
7182;BME280;3632;42.724;23.298;2022-07-29T13:24:00;95239.41;;;36.66;31.22
7182;BME280;3632;42.724;23.298;2022-07-29T13:26:27;95237.63;;;36.61;29.91
7182;BME280;3632;42.724;23.298;2022-07-29T13:28:55;95230.34;;;36.67;29.77